Time;durP1;ratioP1;P1;durP2;ratioP2;P2;SDS_P1;SDS_P2;PMS_P1;PMS_P2;Temp;Humidity;BMP_temperature;BMP_pressure;BME280_temperature;BME280_humidity;BME280_pressure;Samples;Min_cycle;Max_cycle;Signal;HPM_P1;HPM_P2
2023/12/07 04:00:46;;;;;;;1999.90;999.90;;;;;;;;;;5599021;23;20495;-69
2023/12/07 04:03:31;;;;;;;1999.90;999.90;;;;;;;;;;4950216;28;20804;-67
2023/12/07 04:06:16;;;;;;;1999.90;999.90;;;;;;;;;;4953030;29;20462;-68
2023/12/07 04:09:01;;;;;;;1999.90;999.90;;;;;;;;;;4950295;29;20957;-69
2023/12/07 04:11:46;;;;;;;1999.90;999.90;;;;;;;;;;4936628;29;20601;-68
2023/12/07 04:14:31;;;;;;;1999.90;999.90;;;;;;;;;;4932655;29;21064;-69
2023/12/07 04:17:18;;;;;;;1999.90;999.90;;;;;;;;;;4953634;28;20576;-68
2023/12/07 04:20:03;;;;;;;1999.90;999.90;;;;;;;;;;4949836;29;20232;-68
2023/12/07 04:22:48;;;;;;;1999.90;999.90;;;;;;;;;;4938507;29;20694;-69
2023/12/07 04:25:33;;;;;;;1999.90;999.90;;;;;;;;;;4928985;29;20449;-69
2023/12/07 04:28:18;;;;;;;1999.90;999.90;;;;;;;;;;4953887;29;20424;-69
2023/12/07 04:31:03;;;;;;;1999.90;999.90;;;;;;;;;;4947141;29;20432;-69
2023/12/07 04:33:50;;;;;;;1999.90;999.90;;;;;;;;;;4946357;29;20724;-68
2023/12/07 04:36:35;;;;;;;1999.90;999.90;;;;;;;;;;4956806;29;20431;-67
2023/12/07 04:39:20;;;;;;;1999.90;999.90;;;;;;;;;;4943224;29;20213;-69
2023/12/07 04:42:05;;;;;;;1999.90;999.90;;;;;;;;;;4940540;29;20229;-69
2023/12/07 04:44:51;;;;;;;1999.90;999.90;;;;;;;;;;4942663;29;20317;-68
2023/12/07 04:47:35;;;;;;;1999.90;999.90;;;;;;;;;;4918641;29;20307;-67
2023/12/07 04:50:22;;;;;;;1999.90;999.90;;;;;;;;;;4917575;29;20486;-69
2023/12/07 04:53:07;;;;;;;1999.90;999.90;;;;;;;;;;4918311;29;20270;-69
2023/12/07 04:55:52;;;;;;;1999.90;999.90;;;;;;;;;;4918979;29;20218;-68
2023/12/07 04:58:37;;;;;;;1999.90;999.90;;;;;;;;;;4918460;29;20301;-69
2023/12/07 05:01:22;;;;;;;1999.90;999.90;;;;;;;;;;4917963;29;20285;-68
2023/12/07 05:04:06;;;;;;;1999.90;999.90;;;;;;;;;;4918448;29;20369;-69
2023/12/07 05:06:53;;;;;;;1999.90;999.90;;;;;;;;;;4918372;29;20216;-69
2023/12/07 05:09:38;;;;;;;1999.90;999.90;;;;;;;;;;4918139;29;20232;-66
2023/12/07 05:12:22;;;;;;;1999.90;999.90;;;;;;;;;;4918694;29;20214;-69
2023/12/07 05:15:08;;;;;;;1999.90;999.90;;;;;;;;;;4917971;29;20225;-68
2023/12/07 05:17:53;;;;;;;1999.90;999.90;;;;;;;;;;4918348;29;20232;-67
2023/12/07 05:20:39;;;;;;;1999.90;999.90;;;;;;;;;;4934409;29;20243;-69
2023/12/07 05:23:25;;;;;;;1999.90;999.90;;;;;;;;;;4936920;29;20208;-68
2023/12/07 05:26:10;;;;;;;1999.90;999.90;;;;;;;;;;4936960;29;20293;-69
2023/12/07 05:28:55;;;;;;;1999.90;999.90;;;;;;;;;;4936794;29;20209;-69
2023/12/07 05:31:40;;;;;;;1999.90;999.90;;;;;;;;;;4917776;29;20281;-69
2023/12/07 05:34:25;;;;;;;1999.90;999.90;;;;;;;;;;4924657;29;20230;-69
2023/12/07 05:37:11;;;;;;;1999.90;999.90;;;;;;;;;;4953177;29;20314;-68
2023/12/07 05:39:57;;;;;;;1999.90;999.90;;;;;;;;;;4946907;29;20475;-68
2023/12/07 05:42:42;;;;;;;1999.90;999.90;;;;;;;;;;4955371;29;20524;-68
2023/12/07 05:45:27;;;;;;;1999.90;999.90;;;;;;;;;;4955525;29;20220;-68
2023/12/07 05:48:12;;;;;;;1999.90;999.90;;;;;;;;;;4941205;29;20288;-69
2023/12/07 05:50:57;;;;;;;1999.90;999.90;;;;;;;;;;4942670;29;20610;-69
2023/12/07 05:53:42;;;;;;;1999.90;999.90;;;;;;;;;;4943559;29;20942;-69
2023/12/07 05:56:29;;;;;;;1999.90;999.90;;;;;;;;;;4929928;29;20698;-69
2023/12/07 05:59:14;;;;;;;1999.90;999.90;;;;;;;;;;4936270;29;20431;-69
2023/12/07 06:01:59;;;;;;;1999.90;999.90;;;;;;;;;;4935881;29;20357;-68
2023/12/07 06:04:44;;;;;;;1999.90;999.90;;;;;;;;;;4928738;29;20440;-68
2023/12/07 06:07:29;;;;;;;1999.90;999.90;;;;;;;;;;4936184;29;20440;-68
2023/12/07 06:10:13;;;;;;;1999.90;999.90;;;;;;;;;;4935671;29;21088;-68
2023/12/07 06:13:00;;;;;;;1999.90;999.90;;;;;;;;;;4936036;29;20467;-68
2023/12/07 06:15:45;;;;;;;1999.90;999.90;;;;;;;;;;4928573;29;20464;-68
2023/12/07 06:18:30;;;;;;;1999.90;999.90;;;;;;;;;;4935846;29;20213;-68
2023/12/07 06:21:15;;;;;;;1999.90;999.90;;;;;;;;;;4934684;29;20601;-68
2023/12/07 06:24:00;;;;;;;1999.90;999.90;;;;;;;;;;4935933;29;20209;-68
2023/12/07 06:26:45;;;;;;;1999.90;999.90;;;;;;;;;;4929597;29;20236;-68
2023/12/07 06:29:31;;;;;;;1999.90;999.90;;;;;;;;;;4931946;29;20738;-67
2023/12/07 06:32:16;;;;;;;1999.90;999.90;;;;;;;;;;4935513;29;21028;-68
2023/12/07 06:35:03;;;;;;;1999.90;999.90;;;;;;;;;;4928647;29;20610;-68
2023/12/07 06:37:49;;;;;;;1999.90;999.90;;;;;;;;;;4929040;29;20210;-68
2023/12/07 06:40:34;;;;;;;1999.90;999.90;;;;;;;;;;4932955;29;20240;-68
2023/12/07 06:43:19;;;;;;;1999.90;999.90;;;;;;;;;;4935389;29;20426;-68
2023/12/07 06:46:05;;;;;;;1999.90;999.90;;;;;;;;;;4933832;29;20284;-68
2023/12/07 06:48:50;;;;;;;1999.90;999.90;;;;;;;;;;4932862;29;20708;-68
2023/12/07 06:51:35;;;;;;;1999.90;999.90;;;;;;;;;;4935033;29;20292;-68
2023/12/07 06:54:20;;;;;;;1999.90;999.90;;;;;;;;;;4931894;29;21072;-68
2023/12/07 06:57:05;;;;;;;1999.90;999.90;;;;;;;;;;4923914;29;20788;-68
2023/12/07 06:59:50;;;;;;;1999.90;999.90;;;;;;;;;;4927202;29;20555;-68
2023/12/07 07:02:36;;;;;;;1999.90;999.90;;;;;;;;;;4933915;29;20273;-67
2023/12/07 07:05:21;;;;;;;1999.90;999.90;;;;;;;;;;4932493;29;20700;-68
2023/12/07 07:08:07;;;;;;;1999.90;999.90;;;;;;;;;;4935009;29;20423;-68
2023/12/07 07:10:52;;;;;;;1999.90;999.90;;;;;;;;;;4932731;29;20484;-68
2023/12/07 07:13:37;;;;;;;1999.90;999.90;;;;;;;;;;4915811;29;20837;-68
2023/12/07 07:16:22;;;;;;;1999.90;999.90;;;;;;;;;;4934724;29;20458;-68
2023/12/07 07:19:08;;;;;;;1999.90;999.90;;;;;;;;;;4924354;29;20221;-68
2023/12/07 07:21:54;;;;;;;1999.90;999.90;;;;;;;;;;4920668;29;20236;-68
2023/12/07 07:24:39;;;;;;;1999.90;999.90;;;;;;;;;;4943699;29;20420;-69
2023/12/07 07:27:24;;;;;;;1999.90;999.90;;;;;;;;;;4948740;29;20519;-71
2023/12/07 07:30:09;;;;;;;1999.90;999.90;;;;;;;;;;4926230;29;20471;-68
2023/12/07 07:32:54;;;;;;;1999.90;999.90;;;;;;;;;;4928858;29;20506;-70
2023/12/07 07:35:41;;;;;;;1999.90;999.90;;;;;;;;;;4932229;29;20209;-70
2023/12/07 07:38:26;;;;;;;1999.90;999.90;;;;;;;;;;4933398;29;20465;-70
2023/12/07 07:41:11;;;;;;;1999.90;999.90;;;;;;;;;;4926016;29;20925;-70
2023/12/07 07:43:56;;;;;;;1999.90;999.90;;;;;;;;;;4926545;29;20229;-70
2023/12/07 07:46:42;;;;;;;1999.90;999.90;;;;;;;;;;4934191;29;20285;-71
2023/12/07 07:49:27;;;;;;;1999.90;999.90;;;;;;;;;;4944855;29;20447;-71
2023/12/07 07:52:13;;;;;;;1999.90;999.90;;;;;;;;;;4945937;29;20427;-70
2023/12/07 07:54:58;;;;;;;1999.90;999.90;;;;;;;;;;4957235;29;20547;-70
2023/12/07 07:57:44;;;;;;;1999.90;999.90;;;;;;;;;;4954406;29;20272;-69
2023/12/07 08:00:29;;;;;;;1999.90;999.90;;;;;;;;;;4947619;29;21065;-69
2023/12/07 08:03:14;;;;;;;1999.90;999.90;;;;;;;;;;4942120;29;20435;-70
2023/12/07 08:05:58;;;;;;;1999.90;999.90;;;;;;;;;;4943355;29;20423;-69
2023/12/07 08:08:45;;;;;;;1999.90;999.90;;;;;;;;;;4950033;29;20418;-69
2023/12/07 08:11:29;;;;;;;1999.90;999.90;;;;;;;;;;4943665;29;20370;-69
2023/12/07 08:14:15;;;;;;;1999.90;999.90;;;;;;;;;;4935244;29;20300;-70
2023/12/07 08:16:59;;;;;;;1999.90;999.90;;;;;;;;;;4934678;29;20213;-69
2023/12/07 08:19:44;;;;;;;1999.90;999.90;;;;;;;;;;4929051;29;20217;-70
2023/12/07 08:22:30;;;;;;;1999.90;999.90;;;;;;;;;;4929291;29;20262;-68
2023/12/07 08:25:17;;;;;;;1999.90;999.90;;;;;;;;;;4925671;29;20585;-70
2023/12/07 08:28:02;;;;;;;1999.90;999.90;;;;;;;;;;4930831;29;20436;-69
2023/12/07 08:30:47;;;;;;;1999.90;999.90;;;;;;;;;;4933899;29;20447;-69
2023/12/07 08:33:34;;;;;;;1999.90;999.90;;;;;;;;;;4937003;29;20229;-70
2023/12/07 08:36:19;;;;;;;1999.90;999.90;;;;;;;;;;4937520;29;20300;-69
2023/12/07 08:39:03;;;;;;;1999.90;999.90;;;;;;;;;;4933073;29;20205;-69
2023/12/07 08:41:50;;;;;;;1999.90;999.90;;;;;;;;;;4936898;29;20530;-71
2023/12/07 08:44:34;;;;;;;1999.90;999.90;;;;;;;;;;4927590;29;20217;-72
2023/12/07 08:47:19;;;;;;;1999.90;999.90;;;;;;;;;;4930420;29;20710;-72
2023/12/07 08:50:05;;;;;;;1999.90;999.90;;;;;;;;;;4928845;29;20253;-72
2023/12/07 08:52:50;;;;;;;1999.90;999.90;;;;;;;;;;4930771;29;20484;-71
2023/12/07 08:55:35;;;;;;;1999.90;999.90;;;;;;;;;;4935799;29;20754;-72
2023/12/07 08:58:21;;;;;;;1999.90;999.90;;;;;;;;;;4934619;29;20486;-70
2023/12/07 09:01:06;;;;;;;1999.90;999.90;;;;;;;;;;4926521;29;20284;-72
2023/12/07 09:03:51;;;;;;;1999.90;999.90;;;;;;;;;;4936085;29;20612;-73
2023/12/07 09:06:37;;;;;;;1999.90;999.90;;;;;;;;;;4936992;29;21036;-72
2023/12/07 09:09:23;;;;;;;1999.90;999.90;;;;;;;;;;4936951;29;20300;-72
2023/12/07 09:12:08;;;;;;;1999.90;999.90;;;;;;;;;;4936131;29;20220;-72
2023/12/07 09:14:55;;;;;;;1999.90;999.90;;;;;;;;;;4930465;29;20229;-71
2023/12/07 09:17:40;;;;;;;1999.90;999.90;;;;;;;;;;4937054;29;20231;-71
2023/12/07 09:20:25;;;;;;;1999.90;999.90;;;;;;;;;;4943427;29;20447;-71
2023/12/07 09:23:09;;;;;;;1999.90;999.90;;;;;;;;;;4932619;29;20282;-70
2023/12/07 09:25:54;;;;;;;1999.90;999.90;;;;;;;;;;4924718;29;20590;-73
2023/12/07 09:28:39;;;;;;;1999.90;999.90;;;;;;;;;;4924634;29;20306;-72
2023/12/07 09:31:26;;;;;;;1999.90;999.90;;;;;;;;;;4931597;29;20729;-71
2023/12/07 09:34:17;;;;;;;1999.90;999.90;;;;;;;;;;4933239;29;20226;-72
2023/12/07 09:37:08;;;;;;;1999.90;999.90;;;;;;;;;;4933126;29;20205;-71
2023/12/07 09:39:53;;;;;;;1999.90;999.90;;;;;;;;;;4927654;29;20217;-71
2023/12/07 09:42:39;;;;;;;1999.90;999.90;;;;;;;;;;4934373;29;20221;-72
2023/12/07 09:45:24;;;;;;;1999.90;999.90;;;;;;;;;;4931948;29;20220;-71
2023/12/07 09:48:11;;;;;;;1999.90;999.90;;;;;;;;;;4936510;29;20698;-72
2023/12/07 09:50:56;;;;;;;1999.90;999.90;;;;;;;;;;4934472;29;20240;-71
2023/12/07 09:53:43;;;;;;;1999.90;999.90;;;;;;;;;;4936134;29;20428;-71
2023/12/07 09:56:28;;;;;;;1999.90;999.90;;;;;;;;;;4931479;29;20213;-71
2023/12/07 09:59:13;;;;;;;1999.90;999.90;;;;;;;;;;4934746;29;20208;-71
2023/12/07 10:01:58;;;;;;;1999.90;999.90;;;;;;;;;;4926994;29;20257;-71
2023/12/07 10:04:44;;;;;;;1999.90;999.90;;;;;;;;;;4934569;29;20213;-71
2023/12/07 10:07:33;;;;;;;1999.90;999.90;;;;;;;;;;4935845;29;20212;-72
2023/12/07 10:10:18;;;;;;;1999.90;999.90;;;;;;;;;;4924656;29;20240;-72
2023/12/07 10:13:03;;;;;;;1999.90;999.90;;;;;;;;;;4943835;29;20422;-71
2023/12/07 10:16:05;;;;;;;1999.90;999.90;;;;;;;;;;4928416;29;20241;-71
2023/12/07 10:18:50;;;;;;;1999.90;999.90;;;;;;;;;;4925439;29;20397;-71
2023/12/07 10:21:37;;;;;;;1999.90;999.90;;;;;;;;;;4920838;29;20652;-69
2023/12/07 10:24:22;;;;;;;1999.90;999.90;;;;;;;;;;4924090;29;20345;-71
2023/12/07 10:27:07;;;;;;;1999.90;999.90;;;;;;;;;;4922955;29;20717;-72
2023/12/07 10:29:52;;;;;;;1999.90;999.90;;;;;;;;;;4928617;29;20217;-72
2023/12/07 10:32:38;;;;;;;1999.90;999.90;;;;;;;;;;4933703;29;20221;-72
2023/12/07 10:35:23;;;;;;;1999.90;999.90;;;;;;;;;;4928692;29;20704;-73
2023/12/07 10:38:09;;;;;;;1999.90;999.90;;;;;;;;;;4927087;29;20213;-72
2023/12/07 10:41:02;;;;;;;1999.90;999.90;;;;;;;;;;4931595;29;20224;-71
2023/12/07 10:43:49;;;;;;;1999.90;999.90;;;;;;;;;;4930256;29;20209;-71
2023/12/07 10:46:35;;;;;;;1999.90;999.90;;;;;;;;;;4933421;29;20313;-70
2023/12/07 10:49:22;;;;;;;1999.90;999.90;;;;;;;;;;4932150;29;20318;-71
2023/12/07 10:52:08;;;;;;;1999.90;999.90;;;;;;;;;;4926079;29;20241;-71
2023/12/07 10:55:02;;;;;;;1999.90;999.90;;;;;;;;;;4928249;29;20233;-71
2023/12/07 10:57:48;;;;;;;1999.90;999.90;;;;;;;;;;4925600;29;20221;-71
2023/12/07 11:00:33;;;;;;;1999.90;999.90;;;;;;;;;;4925201;29;20244;-71
2023/12/07 11:03:18;;;;;;;1999.90;999.90;;;;;;;;;;4928444;29;20630;-71
2023/12/07 11:06:05;;;;;;;1999.90;999.90;;;;;;;;;;4931263;29;20779;-70
2023/12/07 11:08:52;;;;;;;1999.90;999.90;;;;;;;;;;4932174;29;20584;-71
2023/12/07 11:11:41;;;;;;;1999.90;999.90;;;;;;;;;;4932185;29;20250;-70
2023/12/07 11:14:26;;;;;;;1999.90;999.90;;;;;;;;;;4925781;29;20580;-71
2023/12/07 11:17:11;;;;;;;1999.90;999.90;;;;;;;;;;4929620;29;20296;-70
2023/12/07 11:19:57;;;;;;;1999.90;999.90;;;;;;;;;;4931970;29;20214;-71
2023/12/07 11:22:42;;;;;;;1999.90;999.90;;;;;;;;;;4925981;29;20221;-70
2023/12/07 11:25:27;;;;;;;1999.90;999.90;;;;;;;;;;4931496;29;20584;-70
2023/12/07 11:28:14;;;;;;;1999.90;999.90;;;;;;;;;;4929682;29;20218;-70
2023/12/07 11:30:58;;;;;;;1999.90;999.90;;;;;;;;;;4917187;29;20974;-70
2023/12/07 11:33:43;;;;;;;1999.90;999.90;;;;;;;;;;4933411;29;20588;-70
2023/12/07 11:36:29;;;;;;;1999.90;999.90;;;;;;;;;;4934606;29;20205;-70
2023/12/07 11:39:18;;;;;;;1999.90;999.90;;;;;;;;;;4934696;29;20276;-70
2023/12/07 11:42:07;;;;;;;1999.90;999.90;;;;;;;;;;4928529;29;20293;-70
2023/12/07 11:44:53;;;;;;;1999.90;999.90;;;;;;;;;;4934674;29;20196;-72
2023/12/07 11:47:38;;;;;;;1999.90;999.90;;;;;;;;;;4934484;29;20318;-71
2023/12/07 11:50:23;;;;;;;1999.90;999.90;;;;;;;;;;4929349;29;20230;-70
2023/12/07 11:53:08;;;;;;;1999.90;999.90;;;;;;;;;;4921408;29;20212;-70
2023/12/07 11:55:53;;;;;;;1999.90;999.90;;;;;;;;;;4928687;29;20229;-71
2023/12/07 11:58:38;;;;;;;1999.90;999.90;;;;;;;;;;4924828;29;20609;-70
2023/12/07 12:01:27;;;;;;;1999.90;999.90;;;;;;;;;;4922584;29;20251;-72
2023/12/07 12:04:12;;;;;;;1999.90;999.90;;;;;;;;;;4927419;29;20348;-70
2023/12/07 12:06:57;;;;;;;1999.90;999.90;;;;;;;;;;4926607;29;20273;-71
2023/12/07 12:09:42;;;;;;;1999.90;999.90;;;;;;;;;;4927371;29;20297;-70
2023/12/07 12:12:27;;;;;;;1999.90;999.90;;;;;;;;;;4934218;29;20350;-70
2023/12/07 12:15:12;;;;;;;1999.90;999.90;;;;;;;;;;4931188;29;20324;-71
2023/12/07 12:17:58;;;;;;;1999.90;999.90;;;;;;;;;;4921608;29;20217;-71
2023/12/07 12:20:45;;;;;;;1999.90;999.90;;;;;;;;;;4932126;29;20260;-70
2023/12/07 12:23:30;;;;;;;1999.90;999.90;;;;;;;;;;4933006;29;20218;-71
2023/12/07 12:26:15;;;;;;;1999.90;999.90;;;;;;;;;;4927380;29;20253;-71
2023/12/07 12:29:00;;;;;;;1999.90;999.90;;;;;;;;;;4915402;29;20229;-71
2023/12/07 12:31:46;;;;;;;1999.90;999.90;;;;;;;;;;4914960;29;20734;-71
2023/12/07 12:34:33;;;;;;;1999.90;999.90;;;;;;;;;;4927791;29;20433;-71
2023/12/07 12:37:18;;;;;;;1999.90;999.90;;;;;;;;;;4925666;29;20214;-70
2023/12/07 12:40:06;;;;;;;1999.90;999.90;;;;;;;;;;4929434;29;20285;-71
2023/12/07 12:42:51;;;;;;;1999.90;999.90;;;;;;;;;;4930703;29;20221;-70
2023/12/07 12:45:36;;;;;;;1999.90;999.90;;;;;;;;;;4937666;29;20208;-70
2023/12/07 12:48:21;;;;;;;1999.90;999.90;;;;;;;;;;4937523;29;20214;-71
2023/12/07 12:51:13;;;;;;;1999.90;999.90;;;;;;;;;;4937120;29;20233;-70
2023/12/07 12:53:59;;;;;;;1999.90;999.90;;;;;;;;;;4931770;29;20236;-70
2023/12/07 12:56:44;;;;;;;1999.90;999.90;;;;;;;;;;4937344;29;20313;-70
2023/12/07 12:59:29;;;;;;;1999.90;999.90;;;;;;;;;;4936761;29;20422;-70
2023/12/07 13:02:35;;;;;;;1999.90;999.90;;;;;;;;;;4937316;29;20324;-70
2023/12/07 13:05:20;;;;;;;1999.90;999.90;;;;;;;;;;4930023;29;20641;-71
2023/12/07 13:08:06;;;;;;;1999.90;999.90;;;;;;;;;;4937545;29;20213;-69
2023/12/07 13:10:52;;;;;;;1999.90;999.90;;;;;;;;;;4937073;29;20240;-70
2023/12/07 13:13:36;;;;;;;1999.90;999.90;;;;;;;;;;4937564;29;20783;-70
2023/12/07 13:16:21;;;;;;;1999.90;999.90;;;;;;;;;;4937354;29;20240;-71
2023/12/07 13:19:06;;;;;;;1999.90;999.90;;;;;;;;;;4937368;29;20209;-71
2023/12/07 13:21:52;;;;;;;1999.90;999.90;;;;;;;;;;4936768;29;20240;-71
2023/12/07 13:24:38;;;;;;;1999.90;999.90;;;;;;;;;;4937020;29;20217;-71
2023/12/07 13:27:23;;;;;;;1999.90;999.90;;;;;;;;;;4931986;29;20217;-70
2023/12/07 13:30:09;;;;;;;1999.90;999.90;;;;;;;;;;4927280;29;20604;-71
2023/12/07 13:32:54;;;;;;;1999.90;999.90;;;;;;;;;;4937064;29;20283;-71
2023/12/07 13:35:39;;;;;;;1999.90;999.90;;;;;;;;;;4936555;29;20236;-71
2023/12/07 13:38:24;;;;;;;1999.90;999.90;;;;;;;;;;4937106;29;20221;-71
2023/12/07 13:41:10;;;;;;;1999.90;999.90;;;;;;;;;;4927311;29;20309;-71
2023/12/07 13:43:55;;;;;;;1999.90;999.90;;;;;;;;;;4925170;29;20731;-70
2023/12/07 13:46:41;;;;;;;1999.90;999.90;;;;;;;;;;4931541;29;20589;-71
2023/12/07 13:49:26;;;;;;;1999.90;999.90;;;;;;;;;;4930690;29;20593;-70
2023/12/07 13:52:11;;;;;;;1999.90;999.90;;;;;;;;;;4935567;29;20220;-70
2023/12/07 13:54:57;;;;;;;1999.90;999.90;;;;;;;;;;4934403;29;20233;-71
2023/12/07 13:57:43;;;;;;;1999.90;999.90;;;;;;;;;;4928582;29;20304;-71
2023/12/07 14:00:28;;;;;;;1999.90;999.90;;;;;;;;;;4923293;29;20245;-71
2023/12/07 14:03:13;;;;;;;1999.90;999.90;;;;;;;;;;4929508;29;20284;-69
2023/12/07 14:05:58;;;;;;;1999.90;999.90;;;;;;;;;;4927015;29;20796;-70
2023/12/07 14:08:43;;;;;;;1999.90;999.90;;;;;;;;;;4933361;29;20221;-69
2023/12/07 14:11:28;;;;;;;1999.90;999.90;;;;;;;;;;4927503;29;20261;-70
2023/12/07 14:14:15;;;;;;;1999.90;999.90;;;;;;;;;;4934550;29;20217;-71
2023/12/07 14:17:01;;;;;;;1999.90;999.90;;;;;;;;;;4925813;29;20257;-70
2023/12/07 14:19:47;;;;;;;1999.90;999.90;;;;;;;;;;4931300;29;20962;-70
2023/12/07 14:22:32;;;;;;;1999.90;999.90;;;;;;;;;;4931068;29;20593;-71
2023/12/07 14:25:17;;;;;;;1999.90;999.90;;;;;;;;;;4916365;29;20213;-70
2023/12/07 14:28:02;;;;;;;1999.90;999.90;;;;;;;;;;4931579;29;20217;-70
2023/12/07 14:30:48;;;;;;;1999.90;999.90;;;;;;;;;;4928169;29;20612;-71
2023/12/07 14:33:33;;;;;;;1999.90;999.90;;;;;;;;;;4932985;29;20225;-72
2023/12/07 14:36:18;;;;;;;1999.90;999.90;;;;;;;;;;4926511;29;20218;-71
2023/12/07 14:39:05;;;;;;;1999.90;999.90;;;;;;;;;;4927438;29;20258;-71
2023/12/07 14:41:51;;;;;;;1999.90;999.90;;;;;;;;;;4924103;29;20252;-70
2023/12/07 14:44:36;;;;;;;1999.90;999.90;;;;;;;;;;4933871;29;20228;-70
2023/12/07 14:47:22;;;;;;;1999.90;999.90;;;;;;;;;;4929171;29;20225;-71
2023/12/07 14:50:07;;;;;;;1999.90;999.90;;;;;;;;;;4921321;29;20320;-71
2023/12/07 14:52:53;;;;;;;1999.90;999.90;;;;;;;;;;4929176;29;20213;-71
2023/12/07 14:55:38;;;;;;;1999.90;999.90;;;;;;;;;;4935311;29;20233;-71
2023/12/07 14:58:25;;;;;;;1999.90;999.90;;;;;;;;;;4934975;29;20244;-72
2023/12/07 15:01:10;;;;;;;1999.90;999.90;;;;;;;;;;4925908;29;20708;-71
2023/12/07 15:03:56;;;;;;;1999.90;999.90;;;;;;;;;;4931513;29;20771;-72
2023/12/07 15:06:41;;;;;;;1999.90;999.90;;;;;;;;;;4926792;29;20592;-72
2023/12/07 15:09:26;;;;;;;1999.90;999.90;;;;;;;;;;4932677;29;20221;-72
2023/12/07 15:12:11;;;;;;;1999.90;999.90;;;;;;;;;;4925865;29;20213;-72
2023/12/07 15:14:56;;;;;;;1999.90;999.90;;;;;;;;;;4932198;29;20528;-73
2023/12/07 15:17:41;;;;;;;1999.90;999.90;;;;;;;;;;4926117;29;20600;-73
2023/12/07 15:20:28;;;;;;;1999.90;999.90;;;;;;;;;;4915621;29;20877;-73
2023/12/07 15:23:13;;;;;;;1999.90;999.90;;;;;;;;;;4927504;29;20213;-74
2023/12/07 15:25:58;;;;;;;1999.90;999.90;;;;;;;;;;4928330;29;20217;-73
2023/12/07 15:28:43;;;;;;;1999.90;999.90;;;;;;;;;;4934642;29;20217;-73
2023/12/07 15:31:28;;;;;;;1999.90;999.90;;;;;;;;;;4924087;29;20314;-72
2023/12/07 15:34:13;;;;;;;1999.90;999.90;;;;;;;;;;4930997;29;20212;-73
2023/12/07 15:36:59;;;;;;;1999.90;999.90;;;;;;;;;;4924248;29;20938;-72
2023/12/07 15:39:44;;;;;;;1999.90;999.90;;;;;;;;;;4932810;29;20208;-72
2023/12/07 15:42:29;;;;;;;1999.90;999.90;;;;;;;;;;4933934;29;20208;-72
2023/12/07 15:45:14;;;;;;;1999.90;999.90;;;;;;;;;;4934470;29;20329;-72
2023/12/07 15:47:59;;;;;;;1999.90;999.90;;;;;;;;;;4934703;29;20285;-73
2023/12/07 15:50:44;;;;;;;1999.90;999.90;;;;;;;;;;4932731;29;20229;-72
2023/12/07 15:53:30;;;;;;;1999.90;999.90;;;;;;;;;;4928120;29;20595;-72
2023/12/07 15:56:15;;;;;;;1999.90;999.90;;;;;;;;;;4934441;29;20242;-73
2023/12/07 15:59:00;;;;;;;1999.90;999.90;;;;;;;;;;4928730;29;20480;-73
2023/12/07 16:01:45;;;;;;;1999.90;999.90;;;;;;;;;;4931862;29;20247;-73
2023/12/07 16:04:30;;;;;;;1999.90;999.90;;;;;;;;;;4934324;29;20216;-71
2023/12/07 16:07:14;;;;;;;1999.90;999.90;;;;;;;;;;4934287;29;20322;-73
2023/12/07 16:10:01;;;;;;;1999.90;999.90;;;;;;;;;;4933947;29;20235;-71
2023/12/07 16:12:46;;;;;;;1999.90;999.90;;;;;;;;;;4934399;29;20214;-72
2023/12/07 16:15:31;;;;;;;1999.90;999.90;;;;;;;;;;4936996;29;20457;-72
2023/12/07 16:18:16;;;;;;;1999.90;999.90;;;;;;;;;;4932208;29;20274;-72
2023/12/07 16:21:00;;;;;;;1999.90;999.90;;;;;;;;;;4928878;29;20244;-72
2023/12/07 16:23:45;;;;;;;1999.90;999.90;;;;;;;;;;4926637;29;20289;-73
2023/12/07 16:26:31;;;;;;;1999.90;999.90;;;;;;;;;;4933297;29;20221;-73
2023/12/07 16:29:16;;;;;;;1999.90;999.90;;;;;;;;;;4933577;29;20216;-74
2023/12/07 16:32:01;;;;;;;1999.90;999.90;;;;;;;;;;4933441;29;20472;-73
2023/12/07 16:34:46;;;;;;;1999.90;999.90;;;;;;;;;;4934681;29;20442;-73
2023/12/07 16:37:32;;;;;;;1999.90;999.90;;;;;;;;;;4937619;29;20734;-71
2023/12/07 16:40:18;;;;;;;1999.90;999.90;;;;;;;;;;4934667;29;20480;-72
2023/12/07 16:43:04;;;;;;;1999.90;999.90;;;;;;;;;;4933893;29;20220;-72
2023/12/07 16:45:49;;;;;;;1999.90;999.90;;;;;;;;;;4937263;29;20345;-73
2023/12/07 16:48:34;;;;;;;1999.90;999.90;;;;;;;;;;4934886;29;20692;-73
2023/12/07 16:51:20;;;;;;;1999.90;999.90;;;;;;;;;;4929578;29;20610;-73
2023/12/07 16:54:05;;;;;;;1999.90;999.90;;;;;;;;;;4931732;29;21200;-73
2023/12/07 16:56:51;;;;;;;1999.90;999.90;;;;;;;;;;4932785;29;20486;-73
2023/12/07 16:59:37;;;;;;;1999.90;999.90;;;;;;;;;;4922968;29;20650;-73
2023/12/07 17:02:25;;;;;;;1999.90;999.90;;;;;;;;;;4936968;29;20214;-72
2023/12/07 17:05:10;;;;;;;1999.90;999.90;;;;;;;;;;4935480;29;20217;-74
2023/12/07 17:07:55;;;;;;;1999.90;999.90;;;;;;;;;;4934612;29;20201;-73
2023/12/07 17:10:40;;;;;;;1999.90;999.90;;;;;;;;;;4936732;29;20279;-73
2023/12/07 17:13:26;;;;;;;1999.90;999.90;;;;;;;;;;4933103;29;20217;-76
2023/12/07 17:16:12;;;;;;;1999.90;999.90;;;;;;;;;;4936887;29;20233;-74
2023/12/07 17:18:57;;;;;;;1999.90;999.90;;;;;;;;;;4934116;29;20257;-74
2023/12/07 17:21:42;;;;;;;1999.90;999.90;;;;;;;;;;4923202;29;20251;-74
2023/12/07 17:24:28;;;;;;;1999.90;999.90;;;;;;;;;;4926502;29;20463;-75
2023/12/07 17:27:13;;;;;;;1999.90;999.90;;;;;;;;;;4936952;29;20669;-73
2023/12/07 17:29:58;;;;;;;1999.90;999.90;;;;;;;;;;4934836;29;20209;-75
2023/12/07 17:32:44;;;;;;;1999.90;999.90;;;;;;;;;;4927419;29;20205;-74
2023/12/07 17:35:29;;;;;;;1999.90;999.90;;;;;;;;;;4936889;29;20208;-74
2023/12/07 17:38:14;;;;;;;1999.90;999.90;;;;;;;;;;4933950;29;20230;-76
2023/12/07 17:40:59;;;;;;;1999.90;999.90;;;;;;;;;;4936415;29;20229;-77
2023/12/07 17:43:44;;;;;;;1999.90;999.90;;;;;;;;;;4932671;29;20212;-74
2023/12/07 17:46:29;;;;;;;1999.90;999.90;;;;;;;;;;4936661;29;20205;-76
2023/12/07 17:49:15;;;;;;;1999.90;999.90;;;;;;;;;;4934624;29;20216;-75
2023/12/07 17:52:00;;;;;;;1999.90;999.90;;;;;;;;;;4928298;29;20232;-75
2023/12/07 17:54:45;;;;;;;1999.90;999.90;;;;;;;;;;4930529;29;20205;-73
2023/12/07 17:57:30;;;;;;;1999.90;999.90;;;;;;;;;;4935020;29;20558;-74
2023/12/07 18:00:15;;;;;;;1999.90;999.90;;;;;;;;;;4934469;29;20297;-74
2023/12/07 18:03:00;;;;;;;1999.90;999.90;;;;;;;;;;4933930;29;20209;-72
2023/12/07 18:05:46;;;;;;;1999.90;999.90;;;;;;;;;;4932999;29;20210;-72
2023/12/07 18:08:31;;;;;;;1999.90;999.90;;;;;;;;;;4925996;29;20287;-73
2023/12/07 18:11:20;;;;;;;1999.90;999.90;;;;;;;;;;4935828;29;20228;-73
2023/12/07 18:14:06;;;;;;;1999.90;999.90;;;;;;;;;;4931075;29;20250;-73
2023/12/07 18:16:51;;;;;;;1999.90;999.90;;;;;;;;;;4930963;29;20225;-73
2023/12/07 18:19:36;;;;;;;1999.90;999.90;;;;;;;;;;4933793;29;20419;-73
2023/12/07 18:22:22;;;;;;;1999.90;999.90;;;;;;;;;;4924115;29;20221;-73
2023/12/07 18:25:08;;;;;;;1999.90;999.90;;;;;;;;;;4929557;29;20304;-73
2023/12/07 18:27:53;;;;;;;1999.90;999.90;;;;;;;;;;4933060;29;20693;-73
2023/12/07 18:30:39;;;;;;;1999.90;999.90;;;;;;;;;;4940310;29;20234;-73
2023/12/07 18:33:24;;;;;;;1999.90;999.90;;;;;;;;;;4932973;29;20222;-72
2023/12/07 18:36:09;;;;;;;1999.90;999.90;;;;;;;;;;4933731;29;20698;-75
2023/12/07 18:38:55;;;;;;;1999.90;999.90;;;;;;;;;;4932698;29;20293;-72
2023/12/07 18:41:40;;;;;;;1999.90;999.90;;;;;;;;;;4928388;29;20313;-72
2023/12/07 18:44:25;;;;;;;1999.90;999.90;;;;;;;;;;4931341;29;20717;-73
2023/12/07 18:47:10;;;;;;;1999.90;999.90;;;;;;;;;;4935728;29;20226;-73
2023/12/07 18:49:55;;;;;;;1999.90;999.90;;;;;;;;;;4921444;29;20217;-73
2023/12/07 18:52:40;;;;;;;1999.90;999.90;;;;;;;;;;4929310;29;20586;-74
2023/12/07 18:55:27;;;;;;;1999.90;999.90;;;;;;;;;;4920130;29;20305;-74
2023/12/07 18:58:12;;;;;;;1999.90;999.90;;;;;;;;;;4928720;29;20224;-72
2023/12/07 19:00:58;;;;;;;1999.90;999.90;;;;;;;;;;4924259;29;20374;-72
2023/12/07 19:03:47;;;;;;;1999.90;999.90;;;;;;;;;;4926534;29;20213;-73
2023/12/07 19:06:32;;;;;;;1999.90;999.90;;;;;;;;;;4932198;29;20591;-74
2023/12/07 19:09:20;;;;;;;1999.90;999.90;;;;;;;;;;4932041;29;20335;-73
2023/12/07 19:12:06;;;;;;;1999.90;999.90;;;;;;;;;;4931243;29;20269;-73
2023/12/07 19:14:51;;;;;;;1999.90;999.90;;;;;;;;;;4928062;29;20761;-73
2023/12/07 19:17:36;;;;;;;1999.90;999.90;;;;;;;;;;4933903;29;20954;-73
2023/12/07 19:20:21;;;;;;;1999.90;999.90;;;;;;;;;;4929962;29;20229;-74
2023/12/07 19:23:06;;;;;;;1999.90;999.90;;;;;;;;;;4932859;29;20209;-73